Time;durP1;ratioP1;P1;durP2;ratioP2;P2;SDS_P1;SDS_P2;PMS_P1;PMS_P2;Temp;Humidity;BMP_temperature;BMP_pressure;BME280_temperature;BME280_humidity;BME280_pressure;Samples;Min_cycle;Max_cycle;Signal;HPM_P1;HPM_P2
2022/01/17 00:01:15;;;;;;;33.10;24.35;;;4.00;86.10;;;;;;5034944;28;20045;-86
2022/01/17 00:03:43;;;;;;;31.38;23.77;;;3.90;86.10;;;;;;5035072;28;20060;-85
2022/01/17 00:06:10;;;;;;;32.10;23.67;;;3.90;86.10;;;;;;5035701;28;20045;-88
2022/01/17 00:08:41;;;;;;;31.60;23.90;;;3.90;86.10;;;;;;5035517;28;20053;-86
2022/01/17 00:11:11;;;;;;;32.22;24.00;;;3.90;86.10;;;;;;5036010;28;20045;-86
2022/01/17 00:13:40;;;;;;;31.30;24.27;;;3.90;86.10;;;;;;5020216;28;20037;-86
2022/01/17 00:16:16;;;;;;;33.70;24.55;;;3.80;86.10;;;;;;5034592;28;20493;-85
2022/01/17 00:21:13;;;;;;;34.60;24.83;;;3.80;86.10;;;;;;5035359;28;20128;-86
2022/01/17 00:23:40;;;;;;;36.45;26.40;;;3.70;86.10;;;;;;5035326;28;20053;-86
2022/01/17 00:26:08;;;;;;;35.65;26.45;;;3.70;86.10;;;;;;5035391;28;20053;-86
2022/01/17 00:28:35;;;;;;;31.40;23.88;;;3.70;86.20;;;;;;5035556;28;20048;-87
2022/01/17 00:31:05;;;;;;;33.15;24.33;;;3.70;86.20;;;;;;5033494;28;20052;-86
2022/01/17 00:33:33;;;;;;;34.65;25.98;;;3.70;86.20;;;;;;5034113;28;20061;-85
2022/01/17 00:36:00;;;;;;;35.15;25.98;;;3.60;86.20;;;;;;5034123;28;20057;-86
2022/01/17 00:38:28;;;;;;;33.85;25.08;;;3.60;86.20;;;;;;5035190;28;20054;-86
2022/01/17 00:40:55;;;;;;;36.30;26.00;;;3.60;86.20;;;;;;5067084;28;20052;-86
2022/01/17 00:43:22;;;;;;;40.40;27.95;;;3.50;86.20;;;;;;5035198;28;20077;-85
2022/01/17 00:45:49;;;;;;;39.47;26.88;;;3.60;86.20;;;;;;5034213;28;20056;-86
2022/01/17 00:48:16;;;;;;;47.40;27.85;;;3.50;86.20;;;;;;5034621;28;20075;-85
2022/01/17 00:50:44;;;;;;;50.08;29.90;;;3.50;86.20;;;;;;5068102;28;20056;-86
2022/01/17 00:53:11;;;;;;;54.00;31.25;;;3.50;86.20;;;;;;5033892;28;20051;-86
2022/01/17 00:55:39;;;;;;;61.50;35.83;;;3.50;86.20;;;;;;5035090;28;20060;-86
2022/01/17 00:58:07;;;;;;;54.53;32.55;;;3.40;86.20;;;;;;5034198;28;20132;-86
2022/01/17 01:00:35;;;;;;;58.22;33.47;;;3.40;86.20;;;;;;5036305;28;20432;-86
2022/01/17 01:03:02;;;;;;;50.63;33.10;;;3.40;86.20;;;;;;5034149;28;20041;-86
2022/01/17 01:05:30;;;;;;;51.30;32.60;;;3.40;86.20;;;;;;5034696;28;20139;-87
2022/01/17 01:07:57;;;;;;;51.70;32.75;;;3.40;86.20;;;;;;5034331;28;20041;-86
2022/01/17 01:10:25;;;;;;;50.78;32.78;;;3.30;86.20;;;;;;5034549;28;20045;-87
2022/01/17 01:12:53;;;;;;;54.60;31.85;;;3.30;86.20;;;;;;5033801;28;20050;-87
2022/01/17 01:18:29;;;;;;;53.00;31.50;;;3.20;86.20;;;;;;5036962;28;20063;-86
2022/01/17 01:21:26;;;;;;;52.80;30.65;;;3.20;86.20;;;;;;5035724;28;20057;-86
2022/01/17 01:29:22;;;;;;;49.15;30.13;;;3.20;86.20;;;;;;5035542;28;20041;-87
2022/01/17 01:31:58;;;;;;;50.78;31.42;;;3.10;86.20;;;;;;5035370;28;20041;-87
2022/01/17 01:34:34;;;;;;;45.30;28.55;;;3.10;86.20;;;;;;5034232;28;20053;-86
2022/01/17 01:37:03;;;;;;;42.97;29.20;;;3.10;86.20;;;;;;5033235;28;20053;-87
2022/01/17 01:39:32;;;;;;;48.75;30.85;;;3.00;86.20;;;;;;5035726;28;20041;-86
2022/01/17 01:41:59;;;;;;;51.63;30.63;;;3.00;86.20;;;;;;5033837;28;20048;-86
2022/01/17 01:44:27;;;;;;;49.70;30.80;;;3.00;86.20;;;;;;5033589;28;20191;-87
2022/01/17 01:46:57;;;;;;;46.92;29.95;;;3.00;86.20;;;;;;5035030;28;20053;-86
2022/01/17 01:49:24;;;;;;;43.85;29.30;;;3.00;86.30;;;;;;5033237;28;20046;-88
2022/01/17 01:51:52;;;;;;;41.90;27.77;;;3.00;86.30;;;;;;5033368;28;20060;-87
2022/01/17 01:54:19;;;;;;;44.80;28.17;;;2.90;86.30;;;;;;5032561;28;20051;-87
2022/01/17 01:56:48;;;;;;;41.88;29.02;;;2.90;86.30;;;;;;5032479;28;20044;-87
2022/01/17 01:59:19;;;;;;;45.08;30.73;;;2.90;86.30;;;;;;5033345;28;20045;-86
2022/01/17 02:01:48;;;;;;;45.05;29.02;;;2.90;86.30;;;;;;5033536;28;20437;-87
2022/01/17 02:04:16;;;;;;;44.30;29.60;;;2.90;86.30;;;;;;5032905;28;20056;-86
2022/01/17 02:06:43;;;;;;;40.22;28.00;;;2.90;86.30;;;;;;5031828;28;20068;-86
2022/01/17 02:09:10;;;;;;;39.30;27.50;;;2.90;86.30;;;;;;5035035;28;20075;-86
2022/01/17 02:11:38;;;;;;;39.50;27.73;;;2.90;86.30;;;;;;5033336;28;20132;-86
2022/01/17 02:14:06;;;;;;;41.05;26.67;;;2.90;86.30;;;;;;5032236;28;20049;-87
2022/01/17 02:16:33;;;;;;;42.72;27.20;;;2.80;86.30;;;;;;5033407;28;20061;-87
2022/01/17 02:19:00;;;;;;;40.05;26.42;;;2.80;86.30;;;;;;5031492;28;20049;-86
2022/01/17 02:21:46;;;;;;;38.53;24.60;;;2.80;86.30;;;;;;5033081;28;20678;-86
2022/01/17 02:24:18;;;;;;;38.15;24.77;;;2.80;86.30;;;;;;5033504;28;20063;-87
2022/01/17 02:26:47;;;;;;;38.10;26.75;;;2.80;86.20;;;;;;5033099;28;20079;-86
2022/01/17 02:29:14;;;;;;;37.03;25.70;;;2.70;86.20;;;;;;5032793;28;20536;-86
2022/01/17 02:31:42;;;;;;;34.65;24.58;;;2.70;86.20;;;;;;5031522;28;20041;-87
2022/01/17 02:34:09;;;;;;;38.05;26.38;;;2.70;86.20;;;;;;5032337;28;20045;-86
2022/01/17 02:36:37;;;;;;;37.70;24.88;;;2.70;86.20;;;;;;5033388;28;20045;-87
2022/01/17 02:39:04;;;;;;;33.90;24.13;;;2.70;86.20;;;;;;5035912;28;20053;-87
2022/01/17 02:41:39;;;;;;;34.72;25.45;;;2.70;86.20;;;;;;5033051;28;20047;-87
2022/01/17 02:44:07;;;;;;;35.72;23.45;;;2.70;86.20;;;;;;5032361;28;20057;-86
2022/01/17 02:46:35;;;;;;;32.83;23.67;;;2.60;86.20;;;;;;5017374;28;20102;-87
2022/01/17 02:49:04;;;;;;;34.35;23.92;;;2.60;86.20;;;;;;5026821;28;20425;-88
2022/01/17 02:51:32;;;;;;;30.23;23.02;;;2.60;86.20;;;;;;5033128;28;20041;-87
2022/01/17 02:54:00;;;;;;;31.80;22.23;;;2.60;86.20;;;;;;5033389;28;20046;-88
2022/01/17 02:56:27;;;;;;;29.92;21.48;;;2.60;86.20;;;;;;5037323;28;20054;-88
2022/01/17 02:58:55;;;;;;;30.38;21.98;;;2.50;86.20;;;;;;5036741;28;20514;-87
2022/01/17 03:01:24;;;;;;;31.85;21.52;;;2.60;86.20;;;;;;5037156;28;20049;-88
2022/01/17 03:03:52;;;;;;;28.13;19.77;;;2.50;86.10;;;;;;5036185;28;20136;-87
2022/01/17 03:06:20;;;;;;;28.67;20.80;;;2.50;86.10;;;;;;5039163;28;20529;-88
2022/01/17 03:08:47;;;;;;;29.85;20.75;;;2.50;86.10;;;;;;5035293;28;20422;-87
2022/01/17 03:11:21;;;;;;;31.20;20.88;;;2.50;86.10;;;;;;5035750;28;20044;-87
2022/01/17 03:13:50;;;;;;;29.75;20.88;;;2.40;86.10;;;;;;5035616;28;20437;-88
2022/01/17 03:16:21;;;;;;;27.25;19.60;;;2.50;86.10;;;;;;5036394;28;20057;-87
2022/01/17 03:18:50;;;;;;;27.70;18.75;;;2.40;86.10;;;;;;5033346;28;20494;-88
2022/01/17 03:21:19;;;;;;;26.63;19.35;;;2.40;86.10;;;;;;5036845;28;20521;-87
2022/01/17 03:23:50;;;;;;;27.08;18.05;;;2.40;86.10;;;;;;5035454;28;20043;-87
2022/01/17 03:26:18;;;;;;;26.42;18.55;;;2.40;86.10;;;;;;5038351;28;20518;-87
2022/01/17 03:28:45;;;;;;;26.40;18.30;;;2.40;86.10;;;;;;5068380;28;20049;-87
2022/01/17 03:31:12;;;;;;;25.15;17.38;;;2.40;86.10;;;;;;5034713;28;20049;-87
2022/01/17 03:33:39;;;;;;;22.90;17.50;;;2.40;86.10;;;;;;5036987;28;20135;-88
2022/01/17 03:36:07;;;;;;;26.95;18.17;;;2.40;86.10;;;;;;5068401;28;20041;-88
2022/01/17 03:38:35;;;;;;;25.50;17.23;;;2.30;86.10;;;;;;5038425;28;20055;-88
2022/01/17 03:41:04;;;;;;;23.13;16.40;;;2.30;86.10;;;;;;5035667;28;20049;-88
2022/01/17 03:43:32;;;;;;;25.65;17.52;;;2.30;86.10;;;;;;5037292;28;20051;-88
2022/01/17 03:45:59;;;;;;;24.38;16.65;;;2.30;86.10;;;;;;5034626;28;20129;-88
2022/01/17 03:48:29;;;;;;;22.63;15.73;;;2.30;86.10;;;;;;5035523;28;20049;-88
2022/01/17 03:50:58;;;;;;;22.50;16.48;;;2.30;86.10;;;;;;5036528;28;20057;-87
2022/01/17 03:53:26;;;;;;;26.40;17.17;;;2.30;86.10;;;;;;5037763;28;20076;-87
2022/01/17 03:55:54;;;;;;;24.95;16.30;;;2.30;86.20;;;;;;5035917;28;20049;-87
2022/01/17 03:58:23;;;;;;;25.38;16.77;;;2.30;86.20;;;;;;5036024;28;20046;-86
2022/01/17 04:00:50;;;;;;;23.67;16.73;;;2.30;86.20;;;;;;5035076;28;20045;-87
2022/01/17 04:03:17;;;;;;;24.83;16.73;;;2.30;86.30;;;;;;5067846;28;20049;-87
2022/01/17 04:05:45;;;;;;;23.70;16.58;;;2.30;86.30;;;;;;5034481;28;20077;-87
2022/01/17 04:08:13;;;;;;;25.95;17.83;;;2.30;86.30;;;;;;5035624;28;20046;-87
2022/01/17 04:10:40;;;;;;;24.23;16.48;;;2.30;86.30;;;;;;5035420;28;20051;-87
2022/01/17 04:13:09;;;;;;;25.42;17.80;;;2.30;86.40;;;;;;5034900;28;20063;-87
2022/01/17 04:15:37;;;;;;;26.25;17.70;;;2.30;86.40;;;;;;5035664;28;20049;-88
2022/01/17 04:18:06;;;;;;;25.85;17.58;;;2.30;86.40;;;;;;5036822;28;20056;-87
2022/01/17 04:20:34;;;;;;;27.20;18.02;;;2.40;86.40;;;;;;5035368;28;20425;-87
2022/01/17 04:23:06;;;;;;;28.25;18.60;;;2.40;86.40;;;;;;5035661;28;20053;-87
2022/01/17 04:25:35;;;;;;;30.25;19.38;;;2.40;86.50;;;;;;5035201;28;20053;-87
2022/01/17 04:28:04;;;;;;;28.27;18.98;;;2.40;86.50;;;;;;5034653;28;20049;-87
2022/01/17 04:30:31;;;;;;;24.00;17.85;;;2.40;86.50;;;;;;5035486;28;20046;-87
2022/01/17 04:32:59;;;;;;;28.80;19.35;;;2.40;86.50;;;;;;5067112;28;20073;-87
2022/01/17 04:35:28;;;;;;;28.83;18.85;;;2.40;86.50;;;;;;5035018;28;20056;-87
2022/01/17 04:38:15;;;;;;;30.05;20.08;;;2.40;86.50;;;;;;5035297;28;20045;-88
2022/01/17 04:40:47;;;;;;;33.22;19.42;;;2.50;86.50;;;;;;5019056;28;20050;-87
2022/01/17 04:43:57;;;;;;;32.30;20.05;;;2.50;86.60;;;;;;5034438;28;20493;-87
2022/01/17 04:46:12;;;;;;;29.13;19.38;;;2.50;86.60;;;;;;5030749;28;20055;-87
2022/01/17 04:48:39;;;;;;;27.75;19.02;;;2.50;86.60;;;;;;5035480;28;20053;-86
2022/01/17 04:51:08;;;;;;;35.00;20.63;;;2.50;86.60;;;;;;5034858;28;20047;-86
2022/01/17 04:53:36;;;;;;;29.52;19.85;;;2.50;86.60;;;;;;5036128;28;20049;-87
2022/01/17 04:56:03;;;;;;;36.63;22.45;;;2.50;86.60;;;;;;5036172;28;20041;-86
2022/01/17 04:58:30;;;;;;;29.63;19.95;;;2.60;86.70;;;;;;5034939;28;20513;-86
2022/01/17 05:00:57;;;;;;;35.92;22.65;;;2.60;86.60;;;;;;5034046;28;20052;-86
2022/01/17 05:03:26;;;;;;;34.92;23.20;;;2.60;86.70;;;;;;5034642;28;20213;-86
2022/01/17 05:05:54;;;;;;;38.78;25.55;;;2.60;86.70;;;;;;5034825;28;20069;-86
2022/01/17 05:08:21;;;;;;;36.55;23.25;;;2.70;86.70;;;;;;5032944;28;20049;-86
2022/01/17 05:10:53;;;;;;;35.63;23.15;;;2.70;86.70;;;;;;5034687;28;20073;-86
2022/01/17 05:13:26;;;;;;;35.25;22.50;;;2.60;86.70;;;;;;5034752;28;20068;-86
2022/01/17 05:16:07;;;;;;;34.38;23.33;;;2.70;86.70;;;;;;5032135;28;20482;-87
2022/01/17 05:21:01;;;;;;;35.42;23.77;;;2.70;86.70;;;;;;5036442;28;20047;-86
2022/01/17 05:23:28;;;;;;;42.63;23.85;;;2.70;86.70;;;;;;5034037;28;20379;-87
2022/01/17 05:25:55;;;;;;;34.17;22.92;;;2.70;86.70;;;;;;5034360;28;20041;-86
2022/01/17 05:28:22;;;;;;;37.55;24.33;;;2.70;86.70;;;;;;5034358;28;20049;-87
2022/01/17 05:30:49;;;;;;;38.50;25.30;;;2.70;86.70;;;;;;5035267;28;20053;-87
2022/01/17 05:33:16;;;;;;;39.00;25.33;;;2.70;86.70;;;;;;5033090;28;20577;-86
2022/01/17 05:35:43;;;;;;;42.85;25.50;;;2.70;86.70;;;;;;5033231;28;20045;-85
2022/01/17 05:38:11;;;;;;;46.10;27.88;;;2.70;86.70;;;;;;5033747;28;20042;-86
2022/01/17 05:40:38;;;;;;;47.33;28.42;;;2.70;86.70;;;;;;5034304;28;20041;-86
2022/01/17 05:43:05;;;;;;;42.17;25.65;;;2.70;86.70;;;;;;5033305;28;20049;-86
2022/01/17 05:45:33;;;;;;;54.25;28.30;;;2.80;86.70;;;;;;5035337;28;20071;-88
2022/01/17 05:48:00;;;;;;;50.28;26.88;;;2.80;86.70;;;;;;5033805;28;20059;-87
2022/01/17 05:50:27;;;;;;;49.85;27.70;;;2.80;86.70;;;;;;5034929;28;20128;-87
2022/01/17 05:52:54;;;;;;;52.00;27.98;;;2.80;86.70;;;;;;5033509;28;20041;-87
2022/01/17 05:55:21;;;;;;;54.08;28.88;;;2.80;86.70;;;;;;5034144;28;20057;-87
2022/01/17 05:57:48;;;;;;;54.35;27.80;;;2.80;86.80;;;;;;5032915;28;20502;-86
2022/01/17 06:00:16;;;;;;;51.80;27.65;;;2.80;86.80;;;;;;5033636;28;20076;-86
2022/01/17 06:02:43;;;;;;;47.45;26.88;;;2.80;86.80;;;;;;5032201;28;20067;-87
2022/01/17 06:05:12;;;;;;;48.85;27.13;;;2.80;86.80;;;;;;5033779;28;20417;-87
2022/01/17 06:07:40;;;;;;;50.53;26.75;;;2.80;86.80;;;;;;5033212;28;20060;-87
2022/01/17 06:10:07;;;;;;;48.63;27.17;;;2.90;86.80;;;;;;5031796;28;20053;-86
2022/01/17 06:12:34;;;;;;;47.53;26.10;;;2.90;86.80;;;;;;5033138;28;20057;-87
2022/01/17 06:15:02;;;;;;;48.25;27.63;;;2.80;86.80;;;;;;5033242;28;20045;-87
2022/01/17 06:17:29;;;;;;;51.03;26.70;;;2.90;86.80;;;;;;5035422;28;20437;-86
2022/01/17 06:19:56;;;;;;;46.00;26.08;;;2.80;86.80;;;;;;5033105;28;20653;-87
2022/01/17 06:22:23;;;;;;;44.92;27.10;;;2.90;86.80;;;;;;5033435;28;20049;-86
2022/01/17 06:24:50;;;;;;;50.40;26.75;;;2.90;86.80;;;;;;5032529;28;20046;-88
2022/01/17 06:27:18;;;;;;;46.65;28.75;;;2.90;86.80;;;;;;5033169;28;20045;-87
2022/01/17 06:29:45;;;;;;;49.72;27.65;;;2.90;86.80;;;;;;5034111;28;20053;-87
2022/01/17 06:32:12;;;;;;;55.40;26.60;;;2.90;86.80;;;;;;5033149;28;20528;-88
2022/01/17 06:34:53;;;;;;;43.47;25.90;;;2.90;86.80;;;;;;5034722;28;20079;-86
2022/01/17 06:37:21;;;;;;;49.97;25.95;;;2.90;86.90;;;;;;5031340;28;20067;-87
2022/01/17 06:39:53;;;;;;;43.92;25.65;;;2.90;86.80;;;;;;5026470;28;20053;-87
2022/01/17 06:42:21;;;;;;;47.85;26.83;;;2.90;86.80;;;;;;5034491;28;20067;-87
2022/01/17 06:44:51;;;;;;;52.67;29.05;;;2.90;86.90;;;;;;5034524;28;20132;-87
2022/01/17 06:47:19;;;;;;;53.33;29.55;;;2.90;86.90;;;;;;5033156;28;20045;-86
2022/01/17 06:49:46;;;;;;;50.78;28.60;;;2.90;86.90;;;;;;5032762;28;20055;-87
2022/01/17 06:52:13;;;;;;;54.28;28.77;;;2.90;86.90;;;;;;5031937;28;20049;-88
2022/01/17 06:54:40;;;;;;;56.22;33.78;;;2.90;86.90;;;;;;5033488;28;20053;-86
2022/01/17 06:57:07;;;;;;;52.30;28.73;;;2.90;86.90;;;;;;5035177;28;20041;-86
2022/01/17 06:59:34;;;;;;;52.10;29.63;;;2.90;86.90;;;;;;5032982;28;20041;-89
2022/01/17 07:02:02;;;;;;;58.05;31.55;;;2.90;86.90;;;;;;5033628;28;20060;-87
2022/01/17 07:04:29;;;;;;;60.60;33.15;;;2.90;86.90;;;;;;5032766;28;20441;-87
2022/01/17 07:06:56;;;;;;;62.47;32.42;;;2.90;86.90;;;;;;5032364;28;20057;-86
2022/01/17 07:09:23;;;;;;;57.70;31.73;;;3.00;86.90;;;;;;5032535;28;20069;-86
2022/01/17 07:11:50;;;;;;;54.72;29.10;;;3.00;87.00;;;;;;5032468;28;20055;-87
2022/01/17 07:14:17;;;;;;;61.97;32.00;;;3.00;87.00;;;;;;5032896;28;20464;-86
2022/01/17 07:16:45;;;;;;;57.20;31.48;;;3.00;87.00;;;;;;5035738;28;20048;-86
2022/01/17 07:19:12;;;;;;;58.60;31.70;;;3.00;87.00;;;;;;5034629;28;20509;-86
2022/01/17 07:21:39;;;;;;;59.70;30.13;;;3.00;87.00;;;;;;5034006;28;20072;-86
2022/01/17 07:24:26;;;;;;;67.30;31.13;;;3.10;87.10;;;;;;5032574;28;20046;-86
2022/01/17 07:26:53;;;;;;;60.10;30.00;;;3.10;87.10;;;;;;5032642;28;20422;-85
2022/01/17 07:29:20;;;;;;;64.78;29.15;;;3.10;87.10;;;;;;5032622;28;20049;-86
2022/01/17 07:31:47;;;;;;;66.57;30.17;;;3.10;87.10;;;;;;5030359;28;20056;-85
2022/01/17 07:34:14;;;;;;;63.83;29.40;;;3.20;87.10;;;;;;5030786;28;20441;-85
2022/01/17 07:36:42;;;;;;;62.45;29.75;;;3.20;87.10;;;;;;5030082;28;20048;-87
2022/01/17 07:39:09;;;;;;;69.22;30.33;;;3.20;87.10;;;;;;5032246;28;20520;-87
2022/01/17 07:41:37;;;;;;;59.58;28.27;;;3.20;87.10;;;;;;5035826;28;20510;-87
2022/01/17 07:44:07;;;;;;;68.47;29.65;;;3.20;87.10;;;;;;5035538;28;20057;-87
2022/01/17 07:46:49;;;;;;;69.68;29.55;;;3.20;87.20;;;;;;5036085;28;20053;-86
2022/01/17 07:49:19;;;;;;;63.95;28.88;;;3.30;87.20;;;;;;5032636;28;20072;-86
2022/01/17 07:51:56;;;;;;;68.97;28.90;;;3.30;87.20;;;;;;5032354;28;20049;-86
2022/01/17 07:54:24;;;;;;;64.35;27.42;;;3.30;87.20;;;;;;5035691;28;20051;-86
2022/01/17 07:56:51;;;;;;;70.95;27.75;;;3.30;87.20;;;;;;5035847;28;20047;-86
2022/01/17 07:59:19;;;;;;;64.68;28.80;;;3.30;87.20;;;;;;5037668;28;20420;-86
2022/01/17 08:01:46;;;;;;;64.45;27.95;;;3.30;87.20;;;;;;5035092;28;20045;-86
2022/01/17 08:04:13;;;;;;;61.25;27.05;;;3.40;87.20;;;;;;5035080;28;20054;-86
2022/01/17 08:06:40;;;;;;;59.78;27.40;;;3.40;87.20;;;;;;5035556;28;20049;-85
2022/01/17 08:09:16;;;;;;;66.07;27.20;;;3.40;87.20;;;;;;5067297;28;20068;-85
2022/01/17 08:12:02;;;;;;;55.63;25.60;;;3.40;87.20;;;;;;5036792;28;20041;-86
2022/01/17 08:14:29;;;;;;;52.80;25.40;;;3.40;87.10;;;;;;5035163;28;20061;-85
2022/01/17 08:16:56;;;;;;;55.72;24.42;;;3.40;87.10;;;;;;5036244;28;20128;-86
2022/01/17 08:19:25;;;;;;;50.75;23.65;;;3.40;87.10;;;;;;5035415;28;20046;-85
2022/01/17 08:21:59;;;;;;;53.88;25.20;;;3.40;87.10;;;;;;5032848;28;20049;-85
2022/01/17 08:24:26;;;;;;;47.85;24.65;;;3.40;87.10;;;;;;5035651;28;20123;-86
2022/01/17 08:26:53;;;;;;;54.72;25.55;;;3.40;87.00;;;;;;5035229;28;20037;-86
2022/01/17 08:29:22;;;;;;;51.53;23.42;;;3.40;87.00;;;;;;5034862;28;20045;-86
2022/01/17 08:31:49;;;;;;;62.03;30.08;;;3.40;87.00;;;;;;5034851;28;20048;-88
2022/01/17 08:34:17;;;;;;;49.42;26.40;;;3.40;86.90;;;;;;5034599;28;20049;-86
2022/01/17 08:36:46;;;;;;;52.80;26.75;;;3.30;86.90;;;;;;5034021;28;20079;-87
2022/01/17 08:39:14;;;;;;;52.88;26.02;;;3.30;86.90;;;;;;5034798;28;20049;-86
2022/01/17 08:41:42;;;;;;;63.13;27.77;;;3.30;86.90;;;;;;5034658;28;20037;-86
2022/01/17 08:44:13;;;;;;;52.58;27.05;;;3.30;86.90;;;;;;5034433;28;20107;-86
2022/01/17 08:46:41;;;;;;;56.58;26.35;;;3.30;86.90;;;;;;5034402;28;20037;-86
2022/01/17 08:49:09;;;;;;;59.35;27.35;;;3.30;86.90;;;;;;5033543;28;20049;-86
2022/01/17 08:51:37;;;;;;;56.17;26.20;;;3.20;86.90;;;;;;5033084;28;20049;-86
2022/01/17 08:54:05;;;;;;;59.85;26.02;;;3.30;86.90;;;;;;5034453;28;20052;-86
2022/01/17 08:56:32;;;;;;;69.47;26.55;;;3.30;86.90;;;;;;5034779;28;20041;-85
2022/01/17 08:59:00;;;;;;;55.10;26.38;;;3.30;87.00;;;;;;5034894;28;20049;-86
2022/01/17 09:01:28;;;;;;;54.67;26.30;;;3.30;87.00;;;;;;5034527;28;20053;-85
2022/01/17 09:03:55;;;;;;;58.38;25.10;;;3.30;87.00;;;;;;5034004;28;20049;-86
2022/01/17 09:06:26;;;;;;;56.70;26.40;;;3.30;87.00;;;;;;5034660;28;20053;-86
2022/01/17 09:08:53;;;;;;;52.63;26.70;;;3.30;87.10;;;;;;5034248;28;20506;-86
2022/01/17 09:11:21;;;;;;;49.22;24.92;;;3.30;87.10;;;;;;5034421;28;20448;-86
2022/01/17 09:13:48;;;;;;;53.92;25.23;;;3.30;87.10;;;;;;5034811;28;20051;-86
2022/01/17 09:16:15;;;;;;;51.33;24.48;;;3.40;87.10;;;;;;5032660;28;20046;-86
2022/01/17 09:18:42;;;;;;;48.22;24.90;;;3.40;87.20;;;;;;5034187;28;20180;-85
2022/01/17 09:21:10;;;;;;;51.65;26.25;;;3.40;87.20;;;;;;5034471;28;20063;-86
2022/01/17 09:23:37;;;;;;;52.70;25.45;;;3.40;87.20;;;;;;5033219;28;20045;-86
2022/01/17 09:26:05;;;;;;;55.30;26.33;;;3.40;87.20;;;;;;5034402;28;20099;-86
2022/01/17 09:28:32;;;;;;;47.60;24.40;;;3.40;87.30;;;;;;5034014;28;20081;-86
2022/01/17 09:31:00;;;;;;;46.25;24.27;;;3.50;87.30;;;;;;5033356;28;20107;-85
2022/01/17 09:33:27;;;;;;;45.25;23.77;;;3.40;87.30;;;;;;5032887;28;20041;-86
2022/01/17 09:35:54;;;;;;;47.00;23.92;;;3.50;87.30;;;;;;5034125;28;20045;-86
2022/01/17 09:38:22;;;;;;;42.05;22.33;;;3.50;87.30;;;;;;5034083;28;20429;-85
2022/01/17 09:40:49;;;;;;;41.65;23.63;;;3.50;87.30;;;;;;5034072;28;20433;-85
2022/01/17 09:43:38;;;;;;;43.17;22.73;;;3.50;87.30;;;;;;5017172;28;20037;-85
2022/01/17 09:46:06;;;;;;;41.78;23.20;;;3.50;87.30;;;;;;5029201;28;20045;-86
2022/01/17 09:48:38;;;;;;;42.78;22.85;;;3.50;87.30;;;;;;5035253;28;20107;-85
2022/01/17 09:51:37;;;;;;;39.78;21.65;;;3.60;87.40;;;;;;5033802;28;20051;-85
2022/01/17 09:54:06;;;;;;;38.55;21.27;;;3.50;87.30;;;;;;5033855;28;20475;-85
2022/01/17 09:56:33;;;;;;;36.53;21.45;;;3.60;87.40;;;;;;5032461;28;20414;-85
2022/01/17 09:59:02;;;;;;;39.72;22.00;;;3.70;87.40;;;;;;5034621;28;20060;-85
2022/01/17 10:01:29;;;;;;;49.65;24.48;;;3.70;87.40;;;;;;5034025;28;20059;-85
2022/01/17 10:04:02;;;;;;;41.33;23.50;;;3.70;87.40;;;;;;5031791;28;20064;-86
2022/01/17 10:06:29;;;;;;;52.85;23.23;;;3.70;87.50;;;;;;5032513;28;20509;-85
2022/01/17 10:09:22;;;;;;;42.55;23.67;;;3.80;87.50;;;;;;5031967;28;20422;-85
2022/01/17 10:12:00;;;;;;;42.45;22.92;;;3.80;87.50;;;;;;5033229;28;20616;-85
2022/01/17 10:14:29;;;;;;;42.50;23.40;;;3.80;87.50;;;;;;5033385;28;20500;-87
2022/01/17 10:16:56;;;;;;;48.15;23.77;;;3.90;87.60;;;;;;5033506;28;20045;-86
2022/01/17 10:19:27;;;;;;;55.05;26.50;;;3.90;87.60;;;;;;5033527;28;20045;-86
2022/01/17 10:21:58;;;;;;;54.53;27.38;;;3.90;87.70;;;;;;5032683;28;20073;-86
2022/01/17 10:24:48;;;;;;;62.67;31.20;;;4.00;87.70;;;;;;5032385;28;20038;-85
2022/01/17 10:27:48;;;;;;;87.15;33.95;;;4.10;87.70;;;;;;5031843;28;20048;-85
2022/01/17 10:35:30;;;;;;;96.78;36.42;;;4.50;87.90;;;;;;5032961;28;20128;-86
2022/01/17 10:38:11;;;;;;;101.25;35.60;;;4.60;87.90;;;;;;5033003;28;20053;-86
2022/01/17 10:40:44;;;;;;;84.97;35.63;;;4.90;87.90;;;;;;5031062;28;20045;-86
2022/01/17 10:43:38;;;;;;;94.68;34.08;;;5.00;87.80;;;;;;5031640;28;20049;-86
2022/01/17 10:46:11;;;;;;;87.78;30.65;;;5.20;87.70;;;;;;5027879;28;20088;-85
2022/01/17 10:48:47;;;;;;;73.18;28.17;;;5.40;87.60;;;;;;5032465;28;20488;-86
2022/01/17 10:51:14;;;;;;;62.65;26.77;;;5.60;87.50;;;;;;5032719;28;20047;-85
2022/01/17 10:53:42;;;;;;;60.60;24.67;;;5.70;87.40;;;;;;5032402;28;20053;-86
2022/01/17 10:56:13;;;;;;;53.53;23.20;;;5.90;87.30;;;;;;5032823;28;20131;-85
2022/01/17 10:58:40;;;;;;;44.25;18.55;;;6.00;87.20;;;;;;5017752;28;20043;-85
2022/01/17 11:01:11;;;;;;;42.13;17.38;;;6.20;87.10;;;;;;5032001;28;20054;-85
2022/01/17 11:03:40;;;;;;;39.10;14.48;;;6.30;87.00;;;;;;5032877;28;20100;-85
2022/01/17 11:06:10;;;;;;;31.40;14.20;;;6.50;86.80;;;;;;5033095;28;20559;-87
2022/01/17 11:08:40;;;;;;;29.33;12.93;;;6.60;86.70;;;;;;5032698;28;20050;-86
2022/01/17 11:11:10;;;;;;;29.13;12.10;;;6.70;86.50;;;;;;5032464;28;20132;-87
2022/01/17 11:13:39;;;;;;;25.73;11.52;;;6.80;86.40;;;;;;5017368;28;20077;-86
2022/01/17 11:16:11;;;;;;;30.13;10.63;;;6.90;86.20;;;;;;5031531;28;20054;-87
2022/01/17 11:18:44;;;;;;;30.17;12.02;;;7.00;86.10;;;;;;5036799;28;20140;-87
2022/01/17 11:21:17;;;;;;;32.83;11.25;;;7.10;85.90;;;;;;5068501;28;20046;-86
2022/01/17 11:23:47;;;;;;;27.38;10.77;;;7.20;85.70;;;;;;5036517;28;20049;-87
2022/01/17 11:26:15;;;;;;;26.13;11.10;;;7.20;85.60;;;;;;5037332;28;20038;-86
2022/01/17 11:28:43;;;;;;;27.45;10.82;;;7.20;85.40;;;;;;5036577;28;20132;-86
2022/01/17 11:31:14;;;;;;;29.48;11.60;;;7.30;85.20;;;;;;5035666;28;20054;-86
2022/01/17 11:33:46;;;;;;;27.55;9.75;;;7.30;85.10;;;;;;5037025;28;20534;-86
2022/01/17 11:36:14;;;;;;;26.33;10.50;;;7.20;84.90;;;;;;5036367;28;20053;-86
2022/01/17 11:38:47;;;;;;;27.35;10.57;;;7.30;84.80;;;;;;5037857;28;20045;-86
2022/01/17 11:41:47;;;;;;;26.48;10.45;;;7.20;84.60;;;;;;5067720;28;20049;-86
2022/01/17 11:44:15;;;;;;;23.92;10.50;;;7.20;84.40;;;;;;5036264;28;20045;-88
2022/01/17 11:47:02;;;;;;;29.80;10.60;;;7.20;84.30;;;;;;5037950;28;20042;-88
2022/01/17 11:49:35;;;;;;;29.35;10.55;;;7.20;84.20;;;;;;5036141;28;20127;-87
2022/01/17 11:52:07;;;;;;;31.30;11.10;;;7.10;84.10;;;;;;5035615;28;20409;-87
2022/01/17 11:54:43;;;;;;;30.23;10.48;;;7.10;84.00;;;;;;5035458;28;20575;-87
2022/01/17 11:57:20;;;;;;;26.40;10.23;;;7.00;84.00;;;;;;5036103;28;20474;-87
2022/01/17 11:59:51;;;;;;;26.38;9.57;;;7.00;83.90;;;;;;5036105;28;20045;-89
2022/01/17 12:02:33;;;;;;;25.80;9.23;;;7.10;83.90;;;;;;5036004;28;20069;-89
2022/01/17 12:05:12;;;;;;;35.80;9.48;;;7.00;83.80;;;;;;5037097;28;20107;-88
2022/01/17 12:07:51;;;;;;;27.80;9.65;;;7.00;83.80;;;;;;5020359;28;20041;-87
2022/01/17 12:10:24;;;;;;;21.58;9.52;;;7.00;83.80;;;;;;5035168;28;20053;-86
2022/01/17 12:13:39;;;;;;;19.73;8.70;;;7.10;83.80;;;;;;5033405;28;20050;-87
2022/01/17 12:16:19;;;;;;;24.63;9.40;;;7.10;83.70;;;;;;5033092;28;20073;-87
2022/01/17 12:19:03;;;;;;;21.75;9.88;;;7.10;83.70;;;;;;5049064;28;20040;-87
2022/01/17 12:21:35;;;;;;;23.90;10.37;;;7.10;83.70;;;;;;5050918;28;20048;-87
2022/01/17 12:24:17;;;;;;;27.02;10.00;;;7.10;83.60;;;;;;5050520;28;20043;-86
2022/01/17 12:27:08;;;;;;;18.42;9.25;;;7.20;83.60;;;;;;5051331;28;20085;-87
2022/01/17 12:29:58;;;;;;;23.27;9.90;;;7.20;83.50;;;;;;5050683;28;20045;-87
2022/01/17 12:32:25;;;;;;;21.70;8.57;;;7.20;83.50;;;;;;5041547;28;20045;-86
2022/01/17 12:34:58;;;;;;;20.85;9.02;;;7.20;83.40;;;;;;5051334;28;20433;-87
2022/01/17 12:37:28;;;;;;;18.50;8.90;;;7.20;83.40;;;;;;5050831;28;20045;-86
2022/01/17 12:40:12;;;;;;;18.05;8.00;;;7.30;83.30;;;;;;5037305;28;20063;-87
2022/01/17 12:42:58;;;;;;;18.02;8.07;;;7.30;83.20;;;;;;5051523;28;20486;-86
2022/01/17 12:45:29;;;;;;;15.90;8.07;;;7.40;83.10;;;;;;5034447;28;20051;-87
2022/01/17 12:47:58;;;;;;;19.05;8.45;;;7.40;83.00;;;;;;5051025;28;20045;-86
2022/01/17 12:50:27;;;;;;;18.55;8.35;;;7.40;82.80;;;;;;5039607;28;20045;-87
2022/01/17 12:52:58;;;;;;;19.35;9.10;;;7.40;82.70;;;;;;5034231;28;20042;-87
2022/01/17 12:55:34;;;;;;;20.90;8.88;;;7.50;82.60;;;;;;5034794;28;20053;-86
2022/01/17 12:58:01;;;;;;;22.20;8.60;;;7.50;82.50;;;;;;5033570;28;20049;-86
2022/01/17 13:00:28;;;;;;;18.05;8.35;;;7.50;82.40;;;;;;5033837;28;20058;-86
2022/01/17 13:02:56;;;;;;;16.20;7.50;;;7.60;82.30;;;;;;5034121;28;20124;-87
2022/01/17 13:05:31;;;;;;;20.08;8.40;;;7.60;82.20;;;;;;5034505;28;20048;-86
2022/01/17 13:08:02;;;;;;;16.63;8.30;;;7.60;82.10;;;;;;5032439;28;20060;-88
2022/01/17 13:10:31;;;;;;;22.63;8.98;;;7.70;82.00;;;;;;5034527;28;20057;-87
2022/01/17 13:13:00;;;;;;;18.80;8.75;;;7.70;81.90;;;;;;5033384;28;20383;-88